sensor_id;sensor_type;location;lat;lon;timestamp;temperature;humidity
15409;DHT22;7803;48.130;13.788;2023-12-22T00:00:58;23.00;72.00
15409;DHT22;7803;48.130;13.788;2023-12-22T00:04:00;23.00;72.00
15409;DHT22;7803;48.130;13.788;2023-12-22T00:07:02;23.00;72.00
15409;DHT22;7803;48.130;13.788;2023-12-22T00:10:04;23.00;72.00
15409;DHT22;7803;48.130;13.788;2023-12-22T00:13:06;23.00;72.00
15409;DHT22;7803;48.130;13.788;2023-12-22T00:16:10;23.00;72.00
15409;DHT22;7803;48.130;13.788;2023-12-22T00:19:12;23.00;72.00
15409;DHT22;7803;48.130;13.788;2023-12-22T00:22:14;22.90;72.00
15409;DHT22;7803;48.130;13.788;2023-12-22T00:25:16;22.90;72.00
15409;DHT22;7803;48.130;13.788;2023-12-22T00:28:18;22.90;72.00
15409;DHT22;7803;48.130;13.788;2023-12-22T00:31:21;22.90;72.00
15409;DHT22;7803;48.130;13.788;2023-12-22T00:34:23;22.90;72.20
15409;DHT22;7803;48.130;13.788;2023-12-22T00:37:25;23.00;72.70
15409;DHT22;7803;48.130;13.788;2023-12-22T00:40:27;23.00;72.70
15409;DHT22;7803;48.130;13.788;2023-12-22T00:43:29;23.00;73.50
15409;DHT22;7803;48.130;13.788;2023-12-22T00:46:33;23.00;73.20
15409;DHT22;7803;48.130;13.788;2023-12-22T00:49:34;23.00;72.80
15409;DHT22;7803;48.130;13.788;2023-12-22T00:52:36;23.00;72.80
15409;DHT22;7803;48.130;13.788;2023-12-22T00:55:38;23.00;72.60
15409;DHT22;7803;48.130;13.788;2023-12-22T00:58:41;23.10;81.30
15409;DHT22;7803;48.130;13.788;2023-12-22T01:01:44;23.10;83.80
15409;DHT22;7803;48.130;13.788;2023-12-22T01:04:46;23.10;76.60
15409;DHT22;7803;48.130;13.788;2023-12-22T01:07:48;23.20;76.10
15409;DHT22;7803;48.130;13.788;2023-12-22T01:10:50;23.30;75.70
15409;DHT22;7803;48.130;13.788;2023-12-22T01:13:52;23.30;75.10
15409;DHT22;7803;48.130;13.788;2023-12-22T01:16:56;23.30;74.70
15409;DHT22;7803;48.130;13.788;2023-12-22T01:19:59;23.30;74.10
15409;DHT22;7803;48.130;13.788;2023-12-22T01:23:01;23.30;73.80
15409;DHT22;7803;48.130;13.788;2023-12-22T01:26:03;23.30;73.70
15409;DHT22;7803;48.130;13.788;2023-12-22T01:29:05;23.30;73.30
15409;DHT22;7803;48.130;13.788;2023-12-22T01:32:09;23.30;74.00
15409;DHT22;7803;48.130;13.788;2023-12-22T01:35:11;23.20;73.00
15409;DHT22;7803;48.130;13.788;2023-12-22T01:38:13;23.20;72.80
15409;DHT22;7803;48.130;13.788;2023-12-22T01:41:15;23.20;72.80
15409;DHT22;7803;48.130;13.788;2023-12-22T01:44:18;23.10;72.50
15409;DHT22;7803;48.130;13.788;2023-12-22T01:47:22;23.10;72.50
15409;DHT22;7803;48.130;13.788;2023-12-22T01:50:24;23.10;72.30
15409;DHT22;7803;48.130;13.788;2023-12-22T01:53:27;23.10;72.30
15409;DHT22;7803;48.130;13.788;2023-12-22T01:56:30;23.10;72.20
15409;DHT22;7803;48.130;13.788;2023-12-22T01:59:32;23.10;72.20
15409;DHT22;7803;48.130;13.788;2023-12-22T02:02:37;23.10;72.60
15409;DHT22;7803;48.130;13.788;2023-12-22T02:05:41;23.10;72.50
15409;DHT22;7803;48.130;13.788;2023-12-22T02:08:43;23.10;72.50
15409;DHT22;7803;48.130;13.788;2023-12-22T02:11:47;23.00;72.50
15409;DHT22;7803;48.130;13.788;2023-12-22T02:14:49;23.00;72.20
15409;DHT22;7803;48.130;13.788;2023-12-22T02:17:56;23.00;72.00
15409;DHT22;7803;48.130;13.788;2023-12-22T02:21:00;23.00;72.00
15409;DHT22;7803;48.130;13.788;2023-12-22T02:24:04;23.00;72.00
15409;DHT22;7803;48.130;13.788;2023-12-22T02:27:12;22.90;71.90
15409;DHT22;7803;48.130;13.788;2023-12-22T02:30:22;23.00;71.90
15409;DHT22;7803;48.130;13.788;2023-12-22T02:33:27;23.00;71.80
15409;DHT22;7803;48.130;13.788;2023-12-22T02:36:31;23.00;71.80
15409;DHT22;7803;48.130;13.788;2023-12-22T02:39:35;22.90;71.60
15409;DHT22;7803;48.130;13.788;2023-12-22T02:42:38;23.00;71.70
15409;DHT22;7803;48.130;13.788;2023-12-22T02:45:40;22.90;71.60
15409;DHT22;7803;48.130;13.788;2023-12-22T02:48:42;22.90;71.60
15409;DHT22;7803;48.130;13.788;2023-12-22T02:51:44;22.90;71.60
15409;DHT22;7803;48.130;13.788;2023-12-22T02:54:47;22.90;71.60
15409;DHT22;7803;48.130;13.788;2023-12-22T02:57:49;22.90;71.70
15409;DHT22;7803;48.130;13.788;2023-12-22T03:00:51;22.80;71.60
15409;DHT22;7803;48.130;13.788;2023-12-22T03:03:53;22.80;71.60
15409;DHT22;7803;48.130;13.788;2023-12-22T03:06:55;22.80;71.60
15409;DHT22;7803;48.130;13.788;2023-12-22T03:09:59;22.70;71.60
15409;DHT22;7803;48.130;13.788;2023-12-22T03:13:01;22.80;71.60
15409;DHT22;7803;48.130;13.788;2023-12-22T03:16:08;22.80;71.50
15409;DHT22;7803;48.130;13.788;2023-12-22T03:19:10;22.80;71.60
15409;DHT22;7803;48.130;13.788;2023-12-22T03:22:12;22.70;71.50
15409;DHT22;7803;48.130;13.788;2023-12-22T03:25:15;22.70;71.50
15409;DHT22;7803;48.130;13.788;2023-12-22T03:28:17;22.70;71.50
15409;DHT22;7803;48.130;13.788;2023-12-22T03:31:19;22.70;71.50
15409;DHT22;7803;48.130;13.788;2023-12-22T03:34:21;22.80;71.50
15409;DHT22;7803;48.130;13.788;2023-12-22T03:37:23;22.70;71.40
15409;DHT22;7803;48.130;13.788;2023-12-22T03:40:26;22.70;71.40
15409;DHT22;7803;48.130;13.788;2023-12-22T03:43:29;22.70;71.30
15409;DHT22;7803;48.130;13.788;2023-12-22T03:46:32;22.70;71.30
15409;DHT22;7803;48.130;13.788;2023-12-22T03:49:34;22.70;71.30
15409;DHT22;7803;48.130;13.788;2023-12-22T03:52:36;22.70;71.40
15409;DHT22;7803;48.130;13.788;2023-12-22T03:55:39;22.70;71.40
15409;DHT22;7803;48.130;13.788;2023-12-22T03:58:41;22.70;71.50
15409;DHT22;7803;48.130;13.788;2023-12-22T04:01:43;22.60;71.50
15409;DHT22;7803;48.130;13.788;2023-12-22T04:04:45;22.60;71.50
15409;DHT22;7803;48.130;13.788;2023-12-22T04:07:47;22.60;71.50
15409;DHT22;7803;48.130;13.788;2023-12-22T04:10:51;22.60;71.50
15409;DHT22;7803;48.130;13.788;2023-12-22T04:13:53;22.60;71.50
15409;DHT22;7803;48.130;13.788;2023-12-22T04:16:55;22.60;71.50
15409;DHT22;7803;48.130;13.788;2023-12-22T04:19:57;22.60;71.50
15409;DHT22;7803;48.130;13.788;2023-12-22T04:22:59;22.60;71.50
15409;DHT22;7803;48.130;13.788;2023-12-22T04:26:03;22.50;71.50
15409;DHT22;7803;48.130;13.788;2023-12-22T04:29:05;22.60;71.50
15409;DHT22;7803;48.130;13.788;2023-12-22T04:32:07;22.60;71.40
15409;DHT22;7803;48.130;13.788;2023-12-22T04:35:09;22.60;71.40
15409;DHT22;7803;48.130;13.788;2023-12-22T04:38:11;22.60;71.40
15409;DHT22;7803;48.130;13.788;2023-12-22T04:41:14;22.60;71.40
15409;DHT22;7803;48.130;13.788;2023-12-22T04:44:16;22.60;71.50
15409;DHT22;7803;48.130;13.788;2023-12-22T04:47:18;22.60;71.50
15409;DHT22;7803;48.130;13.788;2023-12-22T04:50:21;22.50;71.50
15409;DHT22;7803;48.130;13.788;2023-12-22T04:53:23;22.50;71.40
15409;DHT22;7803;48.130;13.788;2023-12-22T04:56:26;22.50;71.50
15409;DHT22;7803;48.130;13.788;2023-12-22T04:59:28;22.50;71.50
15409;DHT22;7803;48.130;13.788;2023-12-22T05:02:30;22.50;71.50
15409;DHT22;7803;48.130;13.788;2023-12-22T05:05:33;22.50;71.50
15409;DHT22;7803;48.130;13.788;2023-12-22T05:08:35;22.50;71.60
15409;DHT22;7803;48.130;13.788;2023-12-22T05:11:38;22.50;71.50
15409;DHT22;7803;48.130;13.788;2023-12-22T05:14:40;22.50;71.50
15409;DHT22;7803;48.130;13.788;2023-12-22T05:17:42;22.50;71.50
15409;DHT22;7803;48.130;13.788;2023-12-22T05:20:44;22.50;71.60
15409;DHT22;7803;48.130;13.788;2023-12-22T05:23:46;22.50;71.60
15409;DHT22;7803;48.130;13.788;2023-12-22T05:26:49;22.50;71.60
15409;DHT22;7803;48.130;13.788;2023-12-22T05:29:51;22.50;71.60
15409;DHT22;7803;48.130;13.788;2023-12-22T05:32:53;22.60;71.70
15409;DHT22;7803;48.130;13.788;2023-12-22T05:35:55;22.60;71.80
15409;DHT22;7803;48.130;13.788;2023-12-22T05:38:57;22.60;71.80
15409;DHT22;7803;48.130;13.788;2023-12-22T05:42:00;22.60;71.60
15409;DHT22;7803;48.130;13.788;2023-12-22T05:45:02;22.60;71.50
15409;DHT22;7803;48.130;13.788;2023-12-22T05:48:06;22.60;71.50
15409;DHT22;7803;48.130;13.788;2023-12-22T05:51:09;22.60;71.50
15409;DHT22;7803;48.130;13.788;2023-12-22T05:54:13;22.60;71.50
15409;DHT22;7803;48.130;13.788;2023-12-22T05:57:17;22.60;71.50
15409;DHT22;7803;48.130;13.788;2023-12-22T06:00:19;22.60;71.50
15409;DHT22;7803;48.130;13.788;2023-12-22T06:03:21;22.60;71.50
15409;DHT22;7803;48.130;13.788;2023-12-22T06:06:23;22.60;71.50
15409;DHT22;7803;48.130;13.788;2023-12-22T06:09:25;22.60;71.50
15409;DHT22;7803;48.130;13.788;2023-12-22T06:12:29;22.60;71.50
15409;DHT22;7803;48.130;13.788;2023-12-22T06:15:31;22.50;71.50
15409;DHT22;7803;48.130;13.788;2023-12-22T06:18:34;22.50;71.50
15409;DHT22;7803;48.130;13.788;2023-12-22T06:21:37;22.50;71.60
15409;DHT22;7803;48.130;13.788;2023-12-22T06:24:39;22.50;71.60
15409;DHT22;7803;48.130;13.788;2023-12-22T06:27:44;22.50;71.60
15409;DHT22;7803;48.130;13.788;2023-12-22T06:30:46;22.50;71.60
15409;DHT22;7803;48.130;13.788;2023-12-22T06:33:51;22.50;71.60
15409;DHT22;7803;48.130;13.788;2023-12-22T06:36:53;22.50;71.60
15409;DHT22;7803;48.130;13.788;2023-12-22T06:39:55;22.60;71.80
15409;DHT22;7803;48.130;13.788;2023-12-22T06:42:58;22.60;71.60
15409;DHT22;7803;48.130;13.788;2023-12-22T06:46:00;22.60;71.50
15409;DHT22;7803;48.130;13.788;2023-12-22T06:49:02;22.60;71.50
15409;DHT22;7803;48.130;13.788;2023-12-22T06:52:05;22.60;71.50
15409;DHT22;7803;48.130;13.788;2023-12-22T06:55:08;22.60;71.50
15409;DHT22;7803;48.130;13.788;2023-12-22T06:58:11;22.60;71.40
15409;DHT22;7803;48.130;13.788;2023-12-22T07:01:17;22.60;71.50
15409;DHT22;7803;48.130;13.788;2023-12-22T07:04:20;22.60;71.50
15409;DHT22;7803;48.130;13.788;2023-12-22T07:07:22;22.60;71.40
15409;DHT22;7803;48.130;13.788;2023-12-22T07:10:24;22.60;71.50
15409;DHT22;7803;48.130;13.788;2023-12-22T07:13:27;22.60;71.40
15409;DHT22;7803;48.130;13.788;2023-12-22T07:16:29;22.60;71.40
15409;DHT22;7803;48.130;13.788;2023-12-22T07:19:32;22.60;71.30
15409;DHT22;7803;48.130;13.788;2023-12-22T07:22:35;22.60;71.40
15409;DHT22;7803;48.130;13.788;2023-12-22T07:25:38;22.60;71.50
15409;DHT22;7803;48.130;13.788;2023-12-22T07:28:41;22.60;71.50
15409;DHT22;7803;48.130;13.788;2023-12-22T07:31:43;22.60;71.60
15409;DHT22;7803;48.130;13.788;2023-12-22T07:34:45;22.60;71.60
15409;DHT22;7803;48.130;13.788;2023-12-22T07:37:47;22.60;71.50
15409;DHT22;7803;48.130;13.788;2023-12-22T07:40:49;22.60;71.50
15409;DHT22;7803;48.130;13.788;2023-12-22T07:43:52;22.60;71.50
15409;DHT22;7803;48.130;13.788;2023-12-22T07:46:57;22.70;71.50
15409;DHT22;7803;48.130;13.788;2023-12-22T07:50:00;22.60;71.30
15409;DHT22;7803;48.130;13.788;2023-12-22T07:53:02;22.70;71.40
15409;DHT22;7803;48.130;13.788;2023-12-22T07:56:05;22.70;71.50
15409;DHT22;7803;48.130;13.788;2023-12-22T07:59:08;22.70;71.40
15409;DHT22;7803;48.130;13.788;2023-12-22T08:02:10;22.70;71.40
15409;DHT22;7803;48.130;13.788;2023-12-22T08:05:13;22.70;71.40
15409;DHT22;7803;48.130;13.788;2023-12-22T08:08:16;22.70;71.50
15409;DHT22;7803;48.130;13.788;2023-12-22T08:11:18;22.60;71.30
15409;DHT22;7803;48.130;13.788;2023-12-22T08:14:22;22.70;71.40
15409;DHT22;7803;48.130;13.788;2023-12-22T08:17:25;22.70;71.40
15409;DHT22;7803;48.130;13.788;2023-12-22T08:20:27;22.70;71.40
15409;DHT22;7803;48.130;13.788;2023-12-22T08:23:29;22.70;71.40
15409;DHT22;7803;48.130;13.788;2023-12-22T08:26:31;22.70;71.40
15409;DHT22;7803;48.130;13.788;2023-12-22T08:29:35;22.70;72.30
15409;DHT22;7803;48.130;13.788;2023-12-22T08:32:37;22.70;71.40
15409;DHT22;7803;48.130;13.788;2023-12-22T08:35:39;22.70;71.50
15409;DHT22;7803;48.130;13.788;2023-12-22T08:38:41;22.70;71.40
15409;DHT22;7803;48.130;13.788;2023-12-22T08:41:43;22.70;71.40
15409;DHT22;7803;48.130;13.788;2023-12-22T08:44:46;22.70;71.30
15409;DHT22;7803;48.130;13.788;2023-12-22T08:47:48;22.70;71.20
15409;DHT22;7803;48.130;13.788;2023-12-22T08:50:50;22.70;71.20
15409;DHT22;7803;48.130;13.788;2023-12-22T08:53:53;22.70;71.20
15409;DHT22;7803;48.130;13.788;2023-12-22T08:56:55;22.70;71.20
15409;DHT22;7803;48.130;13.788;2023-12-22T08:59:58;22.70;71.10
15409;DHT22;7803;48.130;13.788;2023-12-22T09:03:00;22.70;71.10
15409;DHT22;7803;48.130;13.788;2023-12-22T09:06:03;22.70;71.10
15409;DHT22;7803;48.130;13.788;2023-12-22T09:09:05;22.70;71.10
15409;DHT22;7803;48.130;13.788;2023-12-22T09:12:08;22.70;71.00
15409;DHT22;7803;48.130;13.788;2023-12-22T09:15:11;22.70;71.00
15409;DHT22;7803;48.130;13.788;2023-12-22T09:18:13;22.70;71.10
15409;DHT22;7803;48.130;13.788;2023-12-22T09:21:15;22.70;71.00
15409;DHT22;7803;48.130;13.788;2023-12-22T09:24:17;22.70;71.00
15409;DHT22;7803;48.130;13.788;2023-12-22T09:27:19;22.70;71.00
15409;DHT22;7803;48.130;13.788;2023-12-22T09:30:23;22.70;71.00
15409;DHT22;7803;48.130;13.788;2023-12-22T09:33:25;22.80;71.10
15409;DHT22;7803;48.130;13.788;2023-12-22T09:36:27;22.80;71.00
15409;DHT22;7803;48.130;13.788;2023-12-22T09:39:29;22.80;71.00
15409;DHT22;7803;48.130;13.788;2023-12-22T09:42:31;22.80;71.00
15409;DHT22;7803;48.130;13.788;2023-12-22T09:45:35;22.80;71.00
15409;DHT22;7803;48.130;13.788;2023-12-22T09:48:38;22.80;70.80
15409;DHT22;7803;48.130;13.788;2023-12-22T09:51:42;22.80;70.80
15409;DHT22;7803;48.130;13.788;2023-12-22T09:54:45;22.80;70.70
15409;DHT22;7803;48.130;13.788;2023-12-22T09:57:49;22.90;70.80
15409;DHT22;7803;48.130;13.788;2023-12-22T10:00:54;22.80;70.70
15409;DHT22;7803;48.130;13.788;2023-12-22T10:03:57;22.80;70.70
15409;DHT22;7803;48.130;13.788;2023-12-22T10:07:01;22.80;70.70
15409;DHT22;7803;48.130;13.788;2023-12-22T10:10:06;22.80;70.80
15409;DHT22;7803;48.130;13.788;2023-12-22T10:13:10;22.80;70.80
15409;DHT22;7803;48.130;13.788;2023-12-22T10:16:14;22.80;70.80
15409;DHT22;7803;48.130;13.788;2023-12-22T10:19:17;22.80;70.40
15409;DHT22;7803;48.130;13.788;2023-12-22T10:22:18;22.80;69.80
15409;DHT22;7803;48.130;13.788;2023-12-22T10:25:28;22.80;69.70
15409;DHT22;7803;48.130;13.788;2023-12-22T10:28:31;22.80;69.70
15409;DHT22;7803;48.130;13.788;2023-12-22T10:31:40;22.80;69.70
15409;DHT22;7803;48.130;13.788;2023-12-22T10:34:42;22.80;69.80
15409;DHT22;7803;48.130;13.788;2023-12-22T10:37:45;22.80;69.70
15409;DHT22;7803;48.130;13.788;2023-12-22T10:40:48;22.80;69.80
15409;DHT22;7803;48.130;13.788;2023-12-22T10:43:51;22.80;70.20
15409;DHT22;7803;48.130;13.788;2023-12-22T10:46:55;22.80;72.90
15409;DHT22;7803;48.130;13.788;2023-12-22T10:49:57;22.80;71.80
15409;DHT22;7803;48.130;13.788;2023-12-22T10:52:59;22.80;70.60
15409;DHT22;7803;48.130;13.788;2023-12-22T10:56:02;22.80;70.60
15409;DHT22;7803;48.130;13.788;2023-12-22T10:59:04;22.80;69.10
15409;DHT22;7803;48.130;13.788;2023-12-22T11:02:11;22.80;67.90
15409;DHT22;7803;48.130;13.788;2023-12-22T11:05:18;22.80;67.70
15409;DHT22;7803;48.130;13.788;2023-12-22T11:08:23;22.70;67.90
15409;DHT22;7803;48.130;13.788;2023-12-22T11:11:30;22.80;68.20
15409;DHT22;7803;48.130;13.788;2023-12-22T11:14:34;22.80;68.30
15409;DHT22;7803;48.130;13.788;2023-12-22T11:17:39;22.80;68.30
15409;DHT22;7803;48.130;13.788;2023-12-22T11:20:44;22.70;68.30
15409;DHT22;7803;48.130;13.788;2023-12-22T11:23:47;22.80;68.50
15409;DHT22;7803;48.130;13.788;2023-12-22T11:26:51;22.80;68.60
15409;DHT22;7803;48.130;13.788;2023-12-22T11:29:55;22.70;68.80
15409;DHT22;7803;48.130;13.788;2023-12-22T11:32:58;22.80;68.90
15409;DHT22;7803;48.130;13.788;2023-12-22T11:36:01;22.80;69.10
15409;DHT22;7803;48.130;13.788;2023-12-22T11:39:04;22.80;69.30
15409;DHT22;7803;48.130;13.788;2023-12-22T11:42:08;22.80;69.30
15409;DHT22;7803;48.130;13.788;2023-12-22T11:45:11;22.80;69.40
15409;DHT22;7803;48.130;13.788;2023-12-22T11:48:17;22.80;69.50
15409;DHT22;7803;48.130;13.788;2023-12-22T11:51:19;22.80;69.40
15409;DHT22;7803;48.130;13.788;2023-12-22T11:54:44;22.80;69.40
15409;DHT22;7803;48.130;13.788;2023-12-22T11:57:47;22.80;69.50
15409;DHT22;7803;48.130;13.788;2023-12-22T12:00:52;22.80;69.60
15409;DHT22;7803;48.130;13.788;2023-12-22T12:03:57;22.80;69.60
15409;DHT22;7803;48.130;13.788;2023-12-22T12:07:37;22.80;69.60
15409;DHT22;7803;48.130;13.788;2023-12-22T12:10:52;22.80;69.60
15409;DHT22;7803;48.130;13.788;2023-12-22T12:13:54;22.80;69.70
15409;DHT22;7803;48.130;13.788;2023-12-22T12:17:07;22.80;69.80
15409;DHT22;7803;48.130;13.788;2023-12-22T12:20:11;22.80;69.80
15409;DHT22;7803;48.130;13.788;2023-12-22T12:23:15;22.80;69.80
15409;DHT22;7803;48.130;13.788;2023-12-22T12:26:17;22.80;69.90
15409;DHT22;7803;48.130;13.788;2023-12-22T12:29:20;22.80;69.90
15409;DHT22;7803;48.130;13.788;2023-12-22T12:32:23;22.80;70.00
15409;DHT22;7803;48.130;13.788;2023-12-22T12:35:27;22.80;70.00
15409;DHT22;7803;48.130;13.788;2023-12-22T12:38:38;22.80;71.00
15409;DHT22;7803;48.130;13.788;2023-12-22T12:41:42;22.80;70.10
15409;DHT22;7803;48.130;13.788;2023-12-22T12:44:47;22.80;70.10
15409;DHT22;7803;48.130;13.788;2023-12-22T12:47:56;22.80;70.20
15409;DHT22;7803;48.130;13.788;2023-12-22T12:51:03;22.80;70.20
15409;DHT22;7803;48.130;13.788;2023-12-22T12:54:06;22.80;70.10
15409;DHT22;7803;48.130;13.788;2023-12-22T12:57:14;22.80;70.00
15409;DHT22;7803;48.130;13.788;2023-12-22T13:00:16;22.80;70.00
15409;DHT22;7803;48.130;13.788;2023-12-22T13:03:18;22.80;69.90
15409;DHT22;7803;48.130;13.788;2023-12-22T13:06:22;22.80;69.90
15409;DHT22;7803;48.130;13.788;2023-12-22T13:09:32;22.80;69.90
15409;DHT22;7803;48.130;13.788;2023-12-22T13:12:34;22.80;69.80
15409;DHT22;7803;48.130;13.788;2023-12-22T13:15:40;22.80;69.80
15409;DHT22;7803;48.130;13.788;2023-12-22T13:18:43;22.80;69.80
15409;DHT22;7803;48.130;13.788;2023-12-22T13:21:46;22.80;69.80
15409;DHT22;7803;48.130;13.788;2023-12-22T13:24:57;22.80;69.80
15409;DHT22;7803;48.130;13.788;2023-12-22T13:27:59;22.80;69.80
15409;DHT22;7803;48.130;13.788;2023-12-22T13:31:02;22.80;69.90
15409;DHT22;7803;48.130;13.788;2023-12-22T13:34:07;22.80;69.90
15409;DHT22;7803;48.130;13.788;2023-12-22T13:37:11;22.80;70.00
15409;DHT22;7803;48.130;13.788;2023-12-22T13:40:14;22.80;70.00
15409;DHT22;7803;48.130;13.788;2023-12-22T13:43:16;22.80;70.00
15409;DHT22;7803;48.130;13.788;2023-12-22T13:46:18;22.80;70.00
15409;DHT22;7803;48.130;13.788;2023-12-22T13:49:20;22.80;70.00
15409;DHT22;7803;48.130;13.788;2023-12-22T13:52:27;22.80;70.00
15409;DHT22;7803;48.130;13.788;2023-12-22T13:55:31;22.90;70.00
15409;DHT22;7803;48.130;13.788;2023-12-22T13:58:43;22.80;69.80
15409;DHT22;7803;48.130;13.788;2023-12-22T14:01:46;22.80;69.80
15409;DHT22;7803;48.130;13.788;2023-12-22T14:04:48;22.80;69.80
15409;DHT22;7803;48.130;13.788;2023-12-22T14:07:52;22.80;69.80
15409;DHT22;7803;48.130;13.788;2023-12-22T14:10:54;22.80;69.90
15409;DHT22;7803;48.130;13.788;2023-12-22T14:13:56;22.90;69.90
15409;DHT22;7803;48.130;13.788;2023-12-22T14:16:57;22.80;70.00
15409;DHT22;7803;48.130;13.788;2023-12-22T14:19:59;22.90;69.90
15409;DHT22;7803;48.130;13.788;2023-12-22T14:23:03;22.80;69.80
15409;DHT22;7803;48.130;13.788;2023-12-22T14:26:05;22.80;69.80
15409;DHT22;7803;48.130;13.788;2023-12-22T14:29:07;22.80;69.80
15409;DHT22;7803;48.130;13.788;2023-12-22T14:32:09;22.80;69.80
15409;DHT22;7803;48.130;13.788;2023-12-22T14:35:12;22.90;69.80
15409;DHT22;7803;48.130;13.788;2023-12-22T14:38:16;22.90;69.90
15409;DHT22;7803;48.130;13.788;2023-12-22T14:41:18;22.80;69.80
15409;DHT22;7803;48.130;13.788;2023-12-22T14:44:19;22.90;70.00
15409;DHT22;7803;48.130;13.788;2023-12-22T14:47:21;22.80;69.90
15409;DHT22;7803;48.130;13.788;2023-12-22T14:50:23;22.90;70.00
15409;DHT22;7803;48.130;13.788;2023-12-22T14:53:27;22.90;69.90
15409;DHT22;7803;48.130;13.788;2023-12-22T14:56:29;22.90;70.00
15409;DHT22;7803;48.130;13.788;2023-12-22T14:59:30;22.90;69.90
15409;DHT22;7803;48.130;13.788;2023-12-22T15:02:32;22.90;69.90
15409;DHT22;7803;48.130;13.788;2023-12-22T15:05:34;22.90;69.80
15409;DHT22;7803;48.130;13.788;2023-12-22T15:08:38;22.90;69.70
15409;DHT22;7803;48.130;13.788;2023-12-22T15:11:42;22.90;69.70
15409;DHT22;7803;48.130;13.788;2023-12-22T15:14:45;22.90;69.70
15409;DHT22;7803;48.130;13.788;2023-12-22T15:17:47;22.90;69.70
15409;DHT22;7803;48.130;13.788;2023-12-22T15:20:49;22.90;69.70
15409;DHT22;7803;48.130;13.788;2023-12-22T15:23:53;22.90;69.70
15409;DHT22;7803;48.130;13.788;2023-12-22T15:26:55;22.90;69.70
15409;DHT22;7803;48.130;13.788;2023-12-22T15:29:57;22.90;69.70
15409;DHT22;7803;48.130;13.788;2023-12-22T15:32:59;22.90;69.60
15409;DHT22;7803;48.130;13.788;2023-12-22T15:36:01;22.90;69.60
15409;DHT22;7803;48.130;13.788;2023-12-22T15:39:04;23.00;69.70
15409;DHT22;7803;48.130;13.788;2023-12-22T15:42:06;22.90;69.60
15409;DHT22;7803;48.130;13.788;2023-12-22T15:45:10;22.90;69.60
15409;DHT22;7803;48.130;13.788;2023-12-22T15:48:14;22.90;69.50
15409;DHT22;7803;48.130;13.788;2023-12-22T15:51:16;22.90;69.60
15409;DHT22;7803;48.130;13.788;2023-12-22T15:54:19;22.90;69.60
15409;DHT22;7803;48.130;13.788;2023-12-22T15:57:22;22.90;69.60
15409;DHT22;7803;48.130;13.788;2023-12-22T16:00:24;22.90;69.60
15409;DHT22;7803;48.130;13.788;2023-12-22T16:03:28;22.90;69.50
15409;DHT22;7803;48.130;13.788;2023-12-22T16:06:30;23.00;69.50
15409;DHT22;7803;48.130;13.788;2023-12-22T16:09:35;23.00;69.40
15409;DHT22;7803;48.130;13.788;2023-12-22T16:12:37;22.90;69.40
15409;DHT22;7803;48.130;13.788;2023-12-22T16:15:39;23.00;69.50
15409;DHT22;7803;48.130;13.788;2023-12-22T16:18:42;23.00;69.50
15409;DHT22;7803;48.130;13.788;2023-12-22T16:21:43;22.90;69.40
15409;DHT22;7803;48.130;13.788;2023-12-22T16:24:48;22.90;69.50
15409;DHT22;7803;48.130;13.788;2023-12-22T16:27:50;22.90;69.40
15409;DHT22;7803;48.130;13.788;2023-12-22T16:30:52;23.00;69.50
15409;DHT22;7803;48.130;13.788;2023-12-22T16:33:54;22.90;69.40
15409;DHT22;7803;48.130;13.788;2023-12-22T16:36:56;23.00;69.50
15409;DHT22;7803;48.130;13.788;2023-12-22T16:40:00;23.00;69.50
15409;DHT22;7803;48.130;13.788;2023-12-22T16:43:02;22.90;69.40
15409;DHT22;7803;48.130;13.788;2023-12-22T16:46:07;22.90;69.50
15409;DHT22;7803;48.130;13.788;2023-12-22T16:49:09;22.90;69.40
15409;DHT22;7803;48.130;13.788;2023-12-22T16:52:11;22.90;69.50
15409;DHT22;7803;48.130;13.788;2023-12-22T16:55:14;22.90;69.50
15409;DHT22;7803;48.130;13.788;2023-12-22T16:58:18;22.90;69.60
15409;DHT22;7803;48.130;13.788;2023-12-22T17:01:20;22.90;69.60
15409;DHT22;7803;48.130;13.788;2023-12-22T17:04:22;22.90;69.60
15409;DHT22;7803;48.130;13.788;2023-12-22T17:07:24;22.90;69.40
15409;DHT22;7803;48.130;13.788;2023-12-22T17:10:27;23.00;69.40
15409;DHT22;7803;48.130;13.788;2023-12-22T17:13:29;23.00;69.40
15409;DHT22;7803;48.130;13.788;2023-12-22T17:16:31;23.00;69.40
15409;DHT22;7803;48.130;13.788;2023-12-22T17:19:33;23.00;69.40
15409;DHT22;7803;48.130;13.788;2023-12-22T17:22:35;23.00;69.30
15409;DHT22;7803;48.130;13.788;2023-12-22T17:25:39;23.00;69.30
15409;DHT22;7803;48.130;13.788;2023-12-22T17:28:41;23.00;69.40
15409;DHT22;7803;48.130;13.788;2023-12-22T17:31:43;22.90;69.30
15409;DHT22;7803;48.130;13.788;2023-12-22T17:34:45;23.00;69.40
15409;DHT22;7803;48.130;13.788;2023-12-22T17:37:47;23.00;69.40
15409;DHT22;7803;48.130;13.788;2023-12-22T17:40:50;23.00;69.40
15409;DHT22;7803;48.130;13.788;2023-12-22T17:43:52;23.00;69.40
15409;DHT22;7803;48.130;13.788;2023-12-22T17:46:54;23.00;69.40
15409;DHT22;7803;48.130;13.788;2023-12-22T17:49:56;22.90;69.30
15409;DHT22;7803;48.130;13.788;2023-12-22T17:52:58;22.90;69.40
15409;DHT22;7803;48.130;13.788;2023-12-22T17:56:01;23.00;69.40
15409;DHT22;7803;48.130;13.788;2023-12-22T17:59:03;23.00;69.50
15409;DHT22;7803;48.130;13.788;2023-12-22T18:02:05;23.00;69.40
15409;DHT22;7803;48.130;13.788;2023-12-22T18:05:07;22.90;69.50
15409;DHT22;7803;48.130;13.788;2023-12-22T18:08:10;23.00;69.50
15409;DHT22;7803;48.130;13.788;2023-12-22T18:11:13;23.00;69.60
15409;DHT22;7803;48.130;13.788;2023-12-22T18:14:15;23.00;69.50
15409;DHT22;7803;48.130;13.788;2023-12-22T18:17:17;23.00;69.40
15409;DHT22;7803;48.130;13.788;2023-12-22T18:20:19;23.00;69.40
15409;DHT22;7803;48.130;13.788;2023-12-22T18:23:22;23.00;69.40
15409;DHT22;7803;48.130;13.788;2023-12-22T18:26:26;23.00;69.40
15409;DHT22;7803;48.130;13.788;2023-12-22T18:29:28;23.00;69.40
15409;DHT22;7803;48.130;13.788;2023-12-22T18:32:30;23.00;69.40
15409;DHT22;7803;48.130;13.788;2023-12-22T18:35:32;23.00;69.40
15409;DHT22;7803;48.130;13.788;2023-12-22T18:38:34;23.00;69.40
15409;DHT22;7803;48.130;13.788;2023-12-22T18:41:37;23.00;69.40
15409;DHT22;7803;48.130;13.788;2023-12-22T18:44:39;23.00;69.40
15409;DHT22;7803;48.130;13.788;2023-12-22T18:47:41;23.00;69.40
15409;DHT22;7803;48.130;13.788;2023-12-22T18:50:43;23.00;69.40
15409;DHT22;7803;48.130;13.788;2023-12-22T18:53:45;23.00;69.50
15409;DHT22;7803;48.130;13.788;2023-12-22T18:56:49;23.00;69.40
15409;DHT22;7803;48.130;13.788;2023-12-22T18:59:51;23.00;69.40
15409;DHT22;7803;48.130;13.788;2023-12-22T19:02:56;23.00;69.50
15409;DHT22;7803;48.130;13.788;2023-12-22T19:05:58;23.00;69.50
15409;DHT22;7803;48.130;13.788;2023-12-22T19:09:01;22.90;69.50
15409;DHT22;7803;48.130;13.788;2023-12-22T19:12:06;22.90;69.50
15409;DHT22;7803;48.130;13.788;2023-12-22T19:15:08;23.00;69.50